Aviation Digital Data Service (ADDS)

Output produced by TAFs form (1702 UTC 23 November 2014)
found at http://aviationweather.gov/adds/tafs/
 
KAMA 231133Z 2312/2412 29018G28KT P6SM SCT120 
     FM231500 34030G40KT P6SM BKN040 
     TEMPO 2317/2321 5SM -RASN BLDU BKN020 
     FM232100 33024G34KT P6SM BKN035 
     FM240000 30010KT P6SM BKN100